sensor_id;sensor_type;location;lat;lon;timestamp;temperature;humidity
5775;DHT22;2913;51.120;6.772;2023-09-19T00:00:22;16.80;99.90
5775;DHT22;2913;51.120;6.772;2023-09-19T00:02:59;16.70;99.90
5775;DHT22;2913;51.120;6.772;2023-09-19T00:05:33;16.80;99.90
5775;DHT22;2913;51.120;6.772;2023-09-19T00:08:00;16.70;99.90
5775;DHT22;2913;51.120;6.772;2023-09-19T00:10:27;16.70;99.90
5775;DHT22;2913;51.120;6.772;2023-09-19T00:12:57;16.70;99.90
5775;DHT22;2913;51.120;6.772;2023-09-19T00:15:27;16.70;99.90
5775;DHT22;2913;51.120;6.772;2023-09-19T00:17:58;16.70;99.90
5775;DHT22;2913;51.120;6.772;2023-09-19T00:25:24;16.60;99.90
5775;DHT22;2913;51.120;6.772;2023-09-19T00:27:57;16.60;99.90
5775;DHT22;2913;51.120;6.772;2023-09-19T00:32:52;16.60;99.90
5775;DHT22;2913;51.120;6.772;2023-09-19T00:35:18;16.50;99.90
5775;DHT22;2913;51.120;6.772;2023-09-19T00:37:54;16.50;99.90
5775;DHT22;2913;51.120;6.772;2023-09-19T00:40:23;16.50;99.90
5775;DHT22;2913;51.120;6.772;2023-09-19T00:42:49;16.50;99.90
5775;DHT22;2913;51.120;6.772;2023-09-19T00:45:17;16.50;99.90
5775;DHT22;2913;51.120;6.772;2023-09-19T00:47:45;16.50;99.90
5775;DHT22;2913;51.120;6.772;2023-09-19T00:50:13;16.50;99.90
5775;DHT22;2913;51.120;6.772;2023-09-19T00:52:40;16.50;99.90
5775;DHT22;2913;51.120;6.772;2023-09-19T00:55:10;16.50;99.90
5775;DHT22;2913;51.120;6.772;2023-09-19T00:57:37;16.50;99.90
5775;DHT22;2913;51.120;6.772;2023-09-19T01:00:10;16.50;99.90
5775;DHT22;2913;51.120;6.772;2023-09-19T01:02:44;16.40;99.90
5775;DHT22;2913;51.120;6.772;2023-09-19T01:05:12;16.40;99.90
5775;DHT22;2913;51.120;6.772;2023-09-19T01:07:38;16.50;99.90
5775;DHT22;2913;51.120;6.772;2023-09-19T01:10:08;16.40;99.90
5775;DHT22;2913;51.120;6.772;2023-09-19T01:13:13;16.40;99.90
5775;DHT22;2913;51.120;6.772;2023-09-19T01:30:22;16.50;99.90
5775;DHT22;2913;51.120;6.772;2023-09-19T01:32:53;16.50;99.90
5775;DHT22;2913;51.120;6.772;2023-09-19T01:35:21;16.50;99.90
5775;DHT22;2913;51.120;6.772;2023-09-19T01:37:47;16.40;99.90
5775;DHT22;2913;51.120;6.772;2023-09-19T01:40:16;16.40;99.90
5775;DHT22;2913;51.120;6.772;2023-09-19T01:43:18;16.40;99.90
5775;DHT22;2913;51.120;6.772;2023-09-19T01:46:12;16.40;99.90
5775;DHT22;2913;51.120;6.772;2023-09-19T01:48:43;16.40;99.90
5775;DHT22;2913;51.120;6.772;2023-09-19T01:51:21;16.40;99.90
5775;DHT22;2913;51.120;6.772;2023-09-19T01:53:55;16.40;99.90
5775;DHT22;2913;51.120;6.772;2023-09-19T01:56:36;16.40;99.90
5775;DHT22;2913;51.120;6.772;2023-09-19T01:59:07;16.40;99.90
5775;DHT22;2913;51.120;6.772;2023-09-19T02:01:34;16.40;99.90
5775;DHT22;2913;51.120;6.772;2023-09-19T02:04:02;16.30;99.90
5775;DHT22;2913;51.120;6.772;2023-09-19T02:06:28;16.40;99.90
5775;DHT22;2913;51.120;6.772;2023-09-19T02:08:56;16.30;99.90
5775;DHT22;2913;51.120;6.772;2023-09-19T02:11:22;16.40;99.90
5775;DHT22;2913;51.120;6.772;2023-09-19T02:13:50;16.30;99.90
5775;DHT22;2913;51.120;6.772;2023-09-19T02:18:48;16.30;99.90
5775;DHT22;2913;51.120;6.772;2023-09-19T02:21:15;16.20;99.90
5775;DHT22;2913;51.120;6.772;2023-09-19T02:26:07;16.20;99.90
5775;DHT22;2913;51.120;6.772;2023-09-19T02:30:59;16.20;99.90
5775;DHT22;2913;51.120;6.772;2023-09-19T02:33:25;16.20;99.90
5775;DHT22;2913;51.120;6.772;2023-09-19T02:35:55;16.10;99.90
5775;DHT22;2913;51.120;6.772;2023-09-19T02:38:25;16.10;99.90
5775;DHT22;2913;51.120;6.772;2023-09-19T02:40:52;16.10;99.90
5775;DHT22;2913;51.120;6.772;2023-09-19T02:45:45;16.00;99.90
5775;DHT22;2913;51.120;6.772;2023-09-19T02:48:17;16.00;99.90
5775;DHT22;2913;51.120;6.772;2023-09-19T02:50:49;16.00;99.90
5775;DHT22;2913;51.120;6.772;2023-09-19T02:55:44;16.10;99.90
5775;DHT22;2913;51.120;6.772;2023-09-19T02:58:12;16.00;99.90
5775;DHT22;2913;51.120;6.772;2023-09-19T03:00:41;16.00;99.90
5775;DHT22;2913;51.120;6.772;2023-09-19T03:03:08;16.10;99.90
5775;DHT22;2913;51.120;6.772;2023-09-19T03:05:36;16.00;99.90
5775;DHT22;2913;51.120;6.772;2023-09-19T03:08:06;15.90;99.90
5775;DHT22;2913;51.120;6.772;2023-09-19T03:10:31;15.90;99.90
5775;DHT22;2913;51.120;6.772;2023-09-19T03:12:58;15.90;99.90
5775;DHT22;2913;51.120;6.772;2023-09-19T03:15:27;15.90;99.90
5775;DHT22;2913;51.120;6.772;2023-09-19T03:20:19;15.90;99.90
5775;DHT22;2913;51.120;6.772;2023-09-19T03:22:46;15.80;99.90
5775;DHT22;2913;51.120;6.772;2023-09-19T03:25:12;15.80;99.90
5775;DHT22;2913;51.120;6.772;2023-09-19T03:27:40;15.80;99.90
5775;DHT22;2913;51.120;6.772;2023-09-19T03:30:07;15.90;99.90
5775;DHT22;2913;51.120;6.772;2023-09-19T03:32:37;15.70;99.90
5775;DHT22;2913;51.120;6.772;2023-09-19T03:35:08;15.80;99.90
5775;DHT22;2913;51.120;6.772;2023-09-19T03:37:40;15.70;99.90
5775;DHT22;2913;51.120;6.772;2023-09-19T03:40:09;15.70;99.90
5775;DHT22;2913;51.120;6.772;2023-09-19T03:42:41;15.80;99.90
5775;DHT22;2913;51.120;6.772;2023-09-19T03:45:08;15.70;99.90
5775;DHT22;2913;51.120;6.772;2023-09-19T03:47:39;15.70;99.90
5775;DHT22;2913;51.120;6.772;2023-09-19T03:50:06;15.70;99.90
5775;DHT22;2913;51.120;6.772;2023-09-19T03:52:36;15.70;99.90
5775;DHT22;2913;51.120;6.772;2023-09-19T03:57:30;15.60;99.90
5775;DHT22;2913;51.120;6.772;2023-09-19T03:59:58;15.60;99.90
5775;DHT22;2913;51.120;6.772;2023-09-19T04:02:26;15.70;99.90
5775;DHT22;2913;51.120;6.772;2023-09-19T04:04:58;15.60;99.90
5775;DHT22;2913;51.120;6.772;2023-09-19T04:07:26;15.60;99.90
5775;DHT22;2913;51.120;6.772;2023-09-19T04:09:54;15.60;99.90
5775;DHT22;2913;51.120;6.772;2023-09-19T04:14:46;15.50;99.90
5775;DHT22;2913;51.120;6.772;2023-09-19T04:17:14;15.50;99.90
5775;DHT22;2913;51.120;6.772;2023-09-19T04:19:40;15.60;99.90
5775;DHT22;2913;51.120;6.772;2023-09-19T04:22:06;15.50;99.90
5775;DHT22;2913;51.120;6.772;2023-09-19T04:24:32;15.50;99.90
5775;DHT22;2913;51.120;6.772;2023-09-19T04:29:25;15.50;99.90
5775;DHT22;2913;51.120;6.772;2023-09-19T04:31:54;15.60;99.90
5775;DHT22;2913;51.120;6.772;2023-09-19T04:34:19;15.50;99.90
5775;DHT22;2913;51.120;6.772;2023-09-19T04:41:38;15.50;99.90
5775;DHT22;2913;51.120;6.772;2023-09-19T04:44:06;15.50;99.90
5775;DHT22;2913;51.120;6.772;2023-09-19T04:46:32;15.40;99.90
5775;DHT22;2913;51.120;6.772;2023-09-19T04:48:58;15.40;99.90
5775;DHT22;2913;51.120;6.772;2023-09-19T04:51:24;15.40;99.90
5775;DHT22;2913;51.120;6.772;2023-09-19T04:53:51;15.40;99.90
5775;DHT22;2913;51.120;6.772;2023-09-19T04:56:18;15.40;99.90
5775;DHT22;2913;51.120;6.772;2023-09-19T04:58:47;15.40;99.90
5775;DHT22;2913;51.120;6.772;2023-09-19T05:01:15;15.40;99.90
5775;DHT22;2913;51.120;6.772;2023-09-19T05:03:46;15.40;99.90
5775;DHT22;2913;51.120;6.772;2023-09-19T05:06:14;15.40;99.90
5775;DHT22;2913;51.120;6.772;2023-09-19T05:08:40;15.40;99.90
5775;DHT22;2913;51.120;6.772;2023-09-19T05:11:05;15.40;99.90
5775;DHT22;2913;51.120;6.772;2023-09-19T05:13:31;15.40;99.90
5775;DHT22;2913;51.120;6.772;2023-09-19T05:16:00;15.40;99.90
5775;DHT22;2913;51.120;6.772;2023-09-19T05:20:53;15.30;99.90
5775;DHT22;2913;51.120;6.772;2023-09-19T05:25:46;15.30;99.90
5775;DHT22;2913;51.120;6.772;2023-09-19T05:28:14;15.40;99.90
5775;DHT22;2913;51.120;6.772;2023-09-19T05:30:45;15.50;99.90
5775;DHT22;2913;51.120;6.772;2023-09-19T05:33:11;15.40;99.90
5775;DHT22;2913;51.120;6.772;2023-09-19T05:38:05;15.50;99.90
5775;DHT22;2913;51.120;6.772;2023-09-19T05:40:34;15.50;99.90
5775;DHT22;2913;51.120;6.772;2023-09-19T05:43:00;15.50;99.90
5775;DHT22;2913;51.120;6.772;2023-09-19T05:53:00;15.60;99.90
5775;DHT22;2913;51.120;6.772;2023-09-19T05:57:57;15.70;99.90
5775;DHT22;2913;51.120;6.772;2023-09-19T06:00:28;15.60;99.90
5775;DHT22;2913;51.120;6.772;2023-09-19T06:02:58;15.70;99.90
5775;DHT22;2913;51.120;6.772;2023-09-19T06:05:25;15.70;99.90
5775;DHT22;2913;51.120;6.772;2023-09-19T06:10:25;15.80;99.90
5775;DHT22;2913;51.120;6.772;2023-09-19T06:12:51;15.80;99.90
5775;DHT22;2913;51.120;6.772;2023-09-19T06:15:19;15.80;99.90
5775;DHT22;2913;51.120;6.772;2023-09-19T06:17:49;15.80;99.90
5775;DHT22;2913;51.120;6.772;2023-09-19T06:20:16;15.90;99.90
5775;DHT22;2913;51.120;6.772;2023-09-19T06:22:43;16.00;99.90
5775;DHT22;2913;51.120;6.772;2023-09-19T06:25:13;16.00;99.90
5775;DHT22;2913;51.120;6.772;2023-09-19T06:27:53;16.00;99.90
5775;DHT22;2913;51.120;6.772;2023-09-19T06:30:23;16.00;99.90
5775;DHT22;2913;51.120;6.772;2023-09-19T06:32:55;16.00;99.90
5775;DHT22;2913;51.120;6.772;2023-09-19T06:42:46;16.00;99.90
5775;DHT22;2913;51.120;6.772;2023-09-19T06:45:13;16.10;99.90
5775;DHT22;2913;51.120;6.772;2023-09-19T06:47:51;16.10;99.90
5775;DHT22;2913;51.120;6.772;2023-09-19T06:50:17;16.10;99.90
5775;DHT22;2913;51.120;6.772;2023-09-19T06:57:44;16.20;99.90
5775;DHT22;2913;51.120;6.772;2023-09-19T07:00:11;16.30;99.90
5775;DHT22;2913;51.120;6.772;2023-09-19T07:02:54;16.40;99.90
5775;DHT22;2913;51.120;6.772;2023-09-19T07:05:25;16.30;99.90
5775;DHT22;2913;51.120;6.772;2023-09-19T07:12:46;16.50;99.90
5775;DHT22;2913;51.120;6.772;2023-09-19T07:15:14;16.60;99.90
5775;DHT22;2913;51.120;6.772;2023-09-19T07:17:39;16.60;99.90
5775;DHT22;2913;51.120;6.772;2023-09-19T07:22:35;16.80;99.90
5775;DHT22;2913;51.120;6.772;2023-09-19T07:25:04;16.80;99.90
5775;DHT22;2913;51.120;6.772;2023-09-19T07:27:30;17.00;99.90
5775;DHT22;2913;51.120;6.772;2023-09-19T07:37:20;17.30;99.90
5775;DHT22;2913;51.120;6.772;2023-09-19T07:42:12;17.40;99.90
5775;DHT22;2913;51.120;6.772;2023-09-19T07:44:46;18.00;99.90
5775;DHT22;2913;51.120;6.772;2023-09-19T07:47:16;17.20;99.90
5775;DHT22;2913;51.120;6.772;2023-09-19T07:49:42;17.60;99.90
5775;DHT22;2913;51.120;6.772;2023-09-19T07:52:11;17.70;99.90
5775;DHT22;2913;51.120;6.772;2023-09-19T07:54:40;17.70;99.90
5775;DHT22;2913;51.120;6.772;2023-09-19T07:57:07;17.90;99.90
5775;DHT22;2913;51.120;6.772;2023-09-19T08:01:58;17.90;99.90
5775;DHT22;2913;51.120;6.772;2023-09-19T08:04:24;17.70;99.90
5775;DHT22;2913;51.120;6.772;2023-09-19T08:06:54;17.80;99.90
5775;DHT22;2913;51.120;6.772;2023-09-19T08:09:21;18.00;99.90
5775;DHT22;2913;51.120;6.772;2023-09-19T08:11:51;17.90;99.90
5775;DHT22;2913;51.120;6.772;2023-09-19T08:14:17;18.00;99.90
5775;DHT22;2913;51.120;6.772;2023-09-19T08:16:45;18.00;99.90
5775;DHT22;2913;51.120;6.772;2023-09-19T08:19:13;18.00;99.90
5775;DHT22;2913;51.120;6.772;2023-09-19T08:21:41;18.00;99.90
5775;DHT22;2913;51.120;6.772;2023-09-19T08:26:34;18.20;99.90
5775;DHT22;2913;51.120;6.772;2023-09-19T08:29:03;18.30;99.90
5775;DHT22;2913;51.120;6.772;2023-09-19T08:31:30;18.50;99.90
5775;DHT22;2913;51.120;6.772;2023-09-19T08:33:56;18.40;99.90
5775;DHT22;2913;51.120;6.772;2023-09-19T08:36:26;18.40;99.90
5775;DHT22;2913;51.120;6.772;2023-09-19T08:38:54;18.60;99.90
5775;DHT22;2913;51.120;6.772;2023-09-19T08:41:24;18.60;99.90
5775;DHT22;2913;51.120;6.772;2023-09-19T08:43:52;18.70;99.90
5775;DHT22;2913;51.120;6.772;2023-09-19T08:46:20;18.80;99.90
5775;DHT22;2913;51.120;6.772;2023-09-19T08:48:51;18.80;99.90
5775;DHT22;2913;51.120;6.772;2023-09-19T08:51:42;18.90;99.90
5775;DHT22;2913;51.120;6.772;2023-09-19T08:54:30;19.00;99.90
5775;DHT22;2913;51.120;6.772;2023-09-19T08:57:00;19.00;99.90
5775;DHT22;2913;51.120;6.772;2023-09-19T08:59:28;19.00;99.90
5775;DHT22;2913;51.120;6.772;2023-09-19T09:01:55;19.10;99.90
5775;DHT22;2913;51.120;6.772;2023-09-19T09:04:22;19.30;99.90
5775;DHT22;2913;51.120;6.772;2023-09-19T09:06:49;19.30;99.90
5775;DHT22;2913;51.120;6.772;2023-09-19T09:09:18;19.40;99.90
5775;DHT22;2913;51.120;6.772;2023-09-19T09:11:48;19.40;99.90
5775;DHT22;2913;51.120;6.772;2023-09-19T09:14:16;19.40;99.90
5775;DHT22;2913;51.120;6.772;2023-09-19T09:16:42;19.60;99.90
5775;DHT22;2913;51.120;6.772;2023-09-19T09:19:10;19.70;99.90
5775;DHT22;2913;51.120;6.772;2023-09-19T09:24:29;19.80;99.90
5775;DHT22;2913;51.120;6.772;2023-09-19T09:27:03;19.90;99.90
5775;DHT22;2913;51.120;6.772;2023-09-19T09:29:47;19.90;99.90
5775;DHT22;2913;51.120;6.772;2023-09-19T09:32:23;20.10;99.90
5775;DHT22;2913;51.120;6.772;2023-09-19T09:34:52;20.10;99.90
5775;DHT22;2913;51.120;6.772;2023-09-19T09:37:19;20.10;99.90
5775;DHT22;2913;51.120;6.772;2023-09-19T09:39:56;20.10;99.90
5775;DHT22;2913;51.120;6.772;2023-09-19T09:42:36;20.30;99.90
5775;DHT22;2913;51.120;6.772;2023-09-19T09:45:23;20.20;99.90
5775;DHT22;2913;51.120;6.772;2023-09-19T09:48:03;20.20;99.90
5775;DHT22;2913;51.120;6.772;2023-09-19T09:50:34;19.90;99.90
5775;DHT22;2913;51.120;6.772;2023-09-19T09:53:23;19.90;99.90
5775;DHT22;2913;51.120;6.772;2023-09-19T09:56:07;19.80;99.90
5775;DHT22;2913;51.120;6.772;2023-09-19T09:58:58;19.70;99.90
5775;DHT22;2913;51.120;6.772;2023-09-19T10:01:27;19.70;99.90
5775;DHT22;2913;51.120;6.772;2023-09-19T10:03:59;19.70;99.90
5775;DHT22;2913;51.120;6.772;2023-09-19T10:06:25;19.60;99.90
5775;DHT22;2913;51.120;6.772;2023-09-19T10:09:10;19.70;99.90
5775;DHT22;2913;51.120;6.772;2023-09-19T10:11:45;19.90;99.90
5775;DHT22;2913;51.120;6.772;2023-09-19T10:14:15;20.00;99.90
5775;DHT22;2913;51.120;6.772;2023-09-19T10:16:47;20.00;99.90
5775;DHT22;2913;51.120;6.772;2023-09-19T10:19:23;20.00;99.90
5775;DHT22;2913;51.120;6.772;2023-09-19T10:21:54;20.00;99.90
5775;DHT22;2913;51.120;6.772;2023-09-19T10:26:50;20.20;99.90
5775;DHT22;2913;51.120;6.772;2023-09-19T10:29:20;20.10;99.90
5775;DHT22;2913;51.120;6.772;2023-09-19T10:31:47;20.20;99.90
5775;DHT22;2913;51.120;6.772;2023-09-19T10:34:17;20.00;99.90
5775;DHT22;2913;51.120;6.772;2023-09-19T10:36:46;20.00;99.90
5775;DHT22;2913;51.120;6.772;2023-09-19T10:41:50;20.10;99.30
5775;DHT22;2913;51.120;6.772;2023-09-19T10:44:25;20.20;99.30
5775;DHT22;2913;51.120;6.772;2023-09-19T10:46:52;20.30;99.70
5775;DHT22;2913;51.120;6.772;2023-09-19T10:49:21;20.20;98.50
5775;DHT22;2913;51.120;6.772;2023-09-19T10:51:50;20.20;98.70
5775;DHT22;2913;51.120;6.772;2023-09-19T10:54:20;20.20;98.00
5775;DHT22;2913;51.120;6.772;2023-09-19T10:56:53;20.10;98.20
5775;DHT22;2913;51.120;6.772;2023-09-19T10:59:21;20.20;99.50
5775;DHT22;2913;51.120;6.772;2023-09-19T11:04:32;20.50;99.90
5775;DHT22;2913;51.120;6.772;2023-09-19T11:09:48;20.60;97.10
5775;DHT22;2913;51.120;6.772;2023-09-19T11:14:59;20.60;95.40
5775;DHT22;2913;51.120;6.772;2023-09-19T11:17:51;20.80;95.00
5775;DHT22;2913;51.120;6.772;2023-09-19T11:20:18;21.00;95.40
5775;DHT22;2913;51.120;6.772;2023-09-19T11:30:34;21.30;95.80
5775;DHT22;2913;51.120;6.772;2023-09-19T11:33:18;21.10;94.10
5775;DHT22;2913;51.120;6.772;2023-09-19T11:43:52;21.30;93.20
5775;DHT22;2913;51.120;6.772;2023-09-19T11:46:21;21.40;93.00
5775;DHT22;2913;51.120;6.772;2023-09-19T11:48:52;21.40;93.00
5775;DHT22;2913;51.120;6.772;2023-09-19T11:51:22;21.40;91.20
5775;DHT22;2913;51.120;6.772;2023-09-19T11:53:52;21.40;90.50
5775;DHT22;2913;51.120;6.772;2023-09-19T11:56:23;21.30;90.00
5775;DHT22;2913;51.120;6.772;2023-09-19T11:58:54;21.50;90.50
5775;DHT22;2913;51.120;6.772;2023-09-19T12:01:31;21.50;90.10
5775;DHT22;2913;51.120;6.772;2023-09-19T12:03:58;21.50;88.20
5775;DHT22;2913;51.120;6.772;2023-09-19T12:06:29;21.40;88.90
5775;DHT22;2913;51.120;6.772;2023-09-19T12:08:58;21.50;89.10
5775;DHT22;2913;51.120;6.772;2023-09-19T12:11:41;21.50;87.80
5775;DHT22;2913;51.120;6.772;2023-09-19T12:14:08;21.40;85.40
5775;DHT22;2913;51.120;6.772;2023-09-19T12:19:18;21.50;87.40
5775;DHT22;2913;51.120;6.772;2023-09-19T12:21:55;21.50;85.00
5775;DHT22;2913;51.120;6.772;2023-09-19T12:24:23;21.60;85.50
5775;DHT22;2913;51.120;6.772;2023-09-19T12:26:59;21.70;86.00
5775;DHT22;2913;51.120;6.772;2023-09-19T12:29:27;21.80;85.80
5775;DHT22;2913;51.120;6.772;2023-09-19T12:31:54;21.80;84.80
5775;DHT22;2913;51.120;6.772;2023-09-19T12:34:32;21.80;85.00
5775;DHT22;2913;51.120;6.772;2023-09-19T12:37:05;21.70;83.60
5775;DHT22;2913;51.120;6.772;2023-09-19T12:39:40;21.80;86.00
5775;DHT22;2913;51.120;6.772;2023-09-19T12:42:10;21.80;84.70
5775;DHT22;2913;51.120;6.772;2023-09-19T12:44:41;21.80;85.10
5775;DHT22;2913;51.120;6.772;2023-09-19T12:47:18;21.80;84.40
5775;DHT22;2913;51.120;6.772;2023-09-19T12:52:42;21.90;84.40
5775;DHT22;2913;51.120;6.772;2023-09-19T12:55:25;21.80;83.30
5775;DHT22;2913;51.120;6.772;2023-09-19T12:58:13;21.70;83.10
5775;DHT22;2913;51.120;6.772;2023-09-19T13:00:42;21.60;83.40
5775;DHT22;2913;51.120;6.772;2023-09-19T13:06:15;21.80;84.30
5775;DHT22;2913;51.120;6.772;2023-09-19T13:08:42;22.00;83.60
5775;DHT22;2913;51.120;6.772;2023-09-19T13:11:14;22.00;83.20
5775;DHT22;2913;51.120;6.772;2023-09-19T13:13:49;22.10;84.10
5775;DHT22;2913;51.120;6.772;2023-09-19T13:18:55;22.10;82.70
5775;DHT22;2913;51.120;6.772;2023-09-19T13:21:33;22.30;83.20
5775;DHT22;2913;51.120;6.772;2023-09-19T13:24:25;22.20;82.30
5775;DHT22;2913;51.120;6.772;2023-09-19T13:26:55;22.30;82.50
5775;DHT22;2913;51.120;6.772;2023-09-19T13:29:23;22.40;82.30
5775;DHT22;2913;51.120;6.772;2023-09-19T13:31:49;22.30;82.70
5775;DHT22;2913;51.120;6.772;2023-09-19T13:34:16;22.50;83.80
5775;DHT22;2913;51.120;6.772;2023-09-19T13:36:43;22.40;83.20
5775;DHT22;2913;51.120;6.772;2023-09-19T13:39:10;22.30;82.10
5775;DHT22;2913;51.120;6.772;2023-09-19T13:41:38;22.20;82.70
5775;DHT22;2913;51.120;6.772;2023-09-19T13:44:06;22.30;83.10
5775;DHT22;2913;51.120;6.772;2023-09-19T13:46:32;22.30;83.50
5775;DHT22;2913;51.120;6.772;2023-09-19T13:49:03;22.30;84.30
5775;DHT22;2913;51.120;6.772;2023-09-19T13:51:32;22.20;83.40
5775;DHT22;2913;51.120;6.772;2023-09-19T13:53:58;22.00;83.80
5775;DHT22;2913;51.120;6.772;2023-09-19T13:56:25;22.00;84.10
5775;DHT22;2913;51.120;6.772;2023-09-19T13:58:53;21.70;83.30
5775;DHT22;2913;51.120;6.772;2023-09-19T14:01:24;21.80;84.40
5775;DHT22;2913;51.120;6.772;2023-09-19T14:03:57;21.60;84.30
5775;DHT22;2913;51.120;6.772;2023-09-19T14:06:23;21.60;85.00
5775;DHT22;2913;51.120;6.772;2023-09-19T14:08:54;21.50;85.10
5775;DHT22;2913;51.120;6.772;2023-09-19T14:11:20;21.40;85.90
5775;DHT22;2913;51.120;6.772;2023-09-19T14:13:48;21.50;86.50
5775;DHT22;2913;51.120;6.772;2023-09-19T14:16:17;21.40;86.40
5775;DHT22;2913;51.120;6.772;2023-09-19T14:18:45;21.40;87.60
5775;DHT22;2913;51.120;6.772;2023-09-19T14:21:16;21.40;87.20
5775;DHT22;2913;51.120;6.772;2023-09-19T14:23:42;21.40;87.10
5775;DHT22;2913;51.120;6.772;2023-09-19T14:26:08;21.60;87.80
5775;DHT22;2913;51.120;6.772;2023-09-19T14:28:35;21.60;87.50
5775;DHT22;2913;51.120;6.772;2023-09-19T14:31:07;21.60;87.30
5775;DHT22;2913;51.120;6.772;2023-09-19T14:33:36;21.60;87.10
5775;DHT22;2913;51.120;6.772;2023-09-19T14:36:05;21.50;87.70
5775;DHT22;2913;51.120;6.772;2023-09-19T14:38:35;21.50;87.00
5775;DHT22;2913;51.120;6.772;2023-09-19T14:41:02;21.40;87.90
5775;DHT22;2913;51.120;6.772;2023-09-19T14:45:57;21.40;88.50
5775;DHT22;2913;51.120;6.772;2023-09-19T14:48:25;21.40;89.00
5775;DHT22;2913;51.120;6.772;2023-09-19T14:50:54;21.40;88.90
5775;DHT22;2913;51.120;6.772;2023-09-19T14:53:21;21.30;89.00
5775;DHT22;2913;51.120;6.772;2023-09-19T14:55:46;21.20;87.50
5775;DHT22;2913;51.120;6.772;2023-09-19T14:58:24;21.10;87.90
5775;DHT22;2913;51.120;6.772;2023-09-19T15:00:51;21.10;88.80
5775;DHT22;2913;51.120;6.772;2023-09-19T15:03:25;20.90;87.90
5775;DHT22;2913;51.120;6.772;2023-09-19T15:06:02;20.90;87.90
5775;DHT22;2913;51.120;6.772;2023-09-19T15:08:30;21.00;89.10
5775;DHT22;2913;51.120;6.772;2023-09-19T15:10:56;20.90;89.40
5775;DHT22;2913;51.120;6.772;2023-09-19T15:13:25;20.90;89.00
5775;DHT22;2913;51.120;6.772;2023-09-19T15:16:05;20.80;89.60
5775;DHT22;2913;51.120;6.772;2023-09-19T15:18:35;20.80;90.20
5775;DHT22;2913;51.120;6.772;2023-09-19T15:21:04;20.80;90.30
5775;DHT22;2913;51.120;6.772;2023-09-19T15:23:36;20.90;90.50
5775;DHT22;2913;51.120;6.772;2023-09-19T15:26:05;20.80;90.20
5775;DHT22;2913;51.120;6.772;2023-09-19T15:28:33;20.80;90.20
5775;DHT22;2913;51.120;6.772;2023-09-19T15:31:01;20.80;90.10
5775;DHT22;2913;51.120;6.772;2023-09-19T15:33:27;20.80;90.50
5775;DHT22;2913;51.120;6.772;2023-09-19T15:36:10;20.80;90.50
5775;DHT22;2913;51.120;6.772;2023-09-19T15:39:09;20.80;90.70
5775;DHT22;2913;51.120;6.772;2023-09-19T15:41:45;20.80;90.80
5775;DHT22;2913;51.120;6.772;2023-09-19T15:44:17;20.80;90.70
5775;DHT22;2913;51.120;6.772;2023-09-19T15:46:45;20.90;91.20
5775;DHT22;2913;51.120;6.772;2023-09-19T15:49:16;20.90;91.40
5775;DHT22;2913;51.120;6.772;2023-09-19T15:51:45;20.90;91.40
5775;DHT22;2913;51.120;6.772;2023-09-19T15:54:15;20.90;91.60
5775;DHT22;2913;51.120;6.772;2023-09-19T15:56:44;20.90;91.20
5775;DHT22;2913;51.120;6.772;2023-09-19T15:59:11;21.00;91.40
5775;DHT22;2913;51.120;6.772;2023-09-19T16:01:41;21.00;91.30
5775;DHT22;2913;51.120;6.772;2023-09-19T16:04:08;20.90;91.00
5775;DHT22;2913;51.120;6.772;2023-09-19T16:06:35;20.90;90.90
5775;DHT22;2913;51.120;6.772;2023-09-19T16:09:06;20.80;90.80
5775;DHT22;2913;51.120;6.772;2023-09-19T16:11:33;20.80;91.00
5775;DHT22;2913;51.120;6.772;2023-09-19T16:13:59;20.80;91.30
5775;DHT22;2913;51.120;6.772;2023-09-19T16:16:26;20.80;91.30
5775;DHT22;2913;51.120;6.772;2023-09-19T16:19:00;20.90;92.00
5775;DHT22;2913;51.120;6.772;2023-09-19T16:21:30;20.90;91.60
5775;DHT22;2913;51.120;6.772;2023-09-19T16:23:57;21.00;91.60
5775;DHT22;2913;51.120;6.772;2023-09-19T16:26:24;21.00;91.90
5775;DHT22;2913;51.120;6.772;2023-09-19T16:28:52;20.90;91.70
5775;DHT22;2913;51.120;6.772;2023-09-19T16:31:21;20.90;92.20
5775;DHT22;2913;51.120;6.772;2023-09-19T16:33:49;20.80;91.90
5775;DHT22;2913;51.120;6.772;2023-09-19T16:36:16;20.80;92.20
5775;DHT22;2913;51.120;6.772;2023-09-19T16:38:45;20.80;92.00
5775;DHT22;2913;51.120;6.772;2023-09-19T16:41:12;20.80;92.50
5775;DHT22;2913;51.120;6.772;2023-09-19T16:43:39;20.70;92.60
5775;DHT22;2913;51.120;6.772;2023-09-19T16:46:06;20.70;92.70
5775;DHT22;2913;51.120;6.772;2023-09-19T16:48:39;20.60;93.30
5775;DHT22;2913;51.120;6.772;2023-09-19T16:51:10;20.60;93.30
5775;DHT22;2913;51.120;6.772;2023-09-19T16:53:37;20.50;93.40
5775;DHT22;2913;51.120;6.772;2023-09-19T16:56:11;20.40;93.90
5775;DHT22;2913;51.120;6.772;2023-09-19T16:58:40;20.30;93.40
5775;DHT22;2913;51.120;6.772;2023-09-19T17:01:07;20.30;93.50
5775;DHT22;2913;51.120;6.772;2023-09-19T17:03:40;20.20;93.80
5775;DHT22;2913;51.120;6.772;2023-09-19T17:06:06;20.20;94.30
5775;DHT22;2913;51.120;6.772;2023-09-19T17:08:32;20.10;94.30
5775;DHT22;2913;51.120;6.772;2023-09-19T17:11:05;20.10;94.60
5775;DHT22;2913;51.120;6.772;2023-09-19T17:13:33;20.10;94.80
5775;DHT22;2913;51.120;6.772;2023-09-19T17:16:10;20.00;95.00
5775;DHT22;2913;51.120;6.772;2023-09-19T17:18:37;20.00;95.10
5775;DHT22;2913;51.120;6.772;2023-09-19T17:21:04;19.90;94.80
5775;DHT22;2913;51.120;6.772;2023-09-19T17:23:36;19.90;95.40
5775;DHT22;2913;51.120;6.772;2023-09-19T17:26:04;19.90;95.10
5775;DHT22;2913;51.120;6.772;2023-09-19T17:28:32;19.80;95.20
5775;DHT22;2913;51.120;6.772;2023-09-19T17:30:58;19.80;95.40
5775;DHT22;2913;51.120;6.772;2023-09-19T17:33:25;19.80;95.40
5775;DHT22;2913;51.120;6.772;2023-09-19T17:36:37;19.80;95.90
5775;DHT22;2913;51.120;6.772;2023-09-19T17:38:49;19.80;96.20
5775;DHT22;2913;51.120;6.772;2023-09-19T17:41:16;19.80;95.80
5775;DHT22;2913;51.120;6.772;2023-09-19T17:43:45;19.70;95.90
5775;DHT22;2913;51.120;6.772;2023-09-19T17:46:18;19.70;95.90
5775;DHT22;2913;51.120;6.772;2023-09-19T17:48:45;19.70;96.40
5775;DHT22;2913;51.120;6.772;2023-09-19T17:51:15;19.70;96.30
5775;DHT22;2913;51.120;6.772;2023-09-19T17:53:42;19.60;96.20
5775;DHT22;2913;51.120;6.772;2023-09-19T17:56:11;19.70;96.30
5775;DHT22;2913;51.120;6.772;2023-09-19T17:58:41;19.70;96.40
5775;DHT22;2913;51.120;6.772;2023-09-19T18:01:14;19.60;96.40
5775;DHT22;2913;51.120;6.772;2023-09-19T18:03:41;19.60;96.20
5775;DHT22;2913;51.120;6.772;2023-09-19T18:06:07;19.60;96.20
5775;DHT22;2913;51.120;6.772;2023-09-19T18:08:39;19.50;96.10
5775;DHT22;2913;51.120;6.772;2023-09-19T18:11:13;19.60;96.60
5775;DHT22;2913;51.120;6.772;2023-09-19T18:13:49;19.50;96.80
5775;DHT22;2913;51.120;6.772;2023-09-19T18:16:16;19.60;96.80
5775;DHT22;2913;51.120;6.772;2023-09-19T18:18:42;19.50;96.90
5775;DHT22;2913;51.120;6.772;2023-09-19T18:21:11;19.50;96.90
5775;DHT22;2913;51.120;6.772;2023-09-19T18:23:38;19.50;97.20
5775;DHT22;2913;51.120;6.772;2023-09-19T18:26:03;19.50;97.00
5775;DHT22;2913;51.120;6.772;2023-09-19T18:28:31;19.50;97.00
5775;DHT22;2913;51.120;6.772;2023-09-19T18:30:57;19.40;96.90
5775;DHT22;2913;51.120;6.772;2023-09-19T18:33:25;19.40;97.40
5775;DHT22;2913;51.120;6.772;2023-09-19T18:35:53;19.50;97.70
5775;DHT22;2913;51.120;6.772;2023-09-19T18:38:19;19.40;97.50
5775;DHT22;2913;51.120;6.772;2023-09-19T18:40:45;19.40;97.40
5775;DHT22;2913;51.120;6.772;2023-09-19T18:43:11;19.40;97.60
5775;DHT22;2913;51.120;6.772;2023-09-19T18:45:37;19.40;97.70
5775;DHT22;2913;51.120;6.772;2023-09-19T18:48:04;19.40;98.00